Time;durP1;ratioP1;P1;durP2;ratioP2;P2;SDS_P1;SDS_P2;PMS_P1;PMS_P2;Temp;Humidity;BMP_temperature;BMP_pressure;BME280_temperature;BME280_humidity;BME280_pressure;Samples;Min_cycle;Max_cycle;Signal;HPM_P1;HPM_P2
2022/01/07 00:00:00;;;;;;;1999.90;999.90;;;3.50;99.90;;;;;;5033615;28;20212;-71
2022/01/07 00:02:26;;;;;;;1999.90;999.90;;;3.50;99.90;;;;;;5033694;28;20164;-72
2022/01/07 00:04:51;;;;;;;1999.90;999.90;;;3.50;99.90;;;;;;5033248;28;20169;-71
2022/01/07 00:07:17;;;;;;;1999.90;999.90;;;3.50;99.90;;;;;;5033334;28;20266;-71
2022/01/07 00:09:42;;;;;;;1999.90;999.90;;;3.50;99.90;;;;;;5033423;28;20191;-70
2022/01/07 00:12:08;;;;;;;1999.90;999.90;;;3.50;99.90;;;;;;5033117;28;20212;-72
2022/01/07 00:14:34;;;;;;;1999.90;999.90;;;3.50;99.90;;;;;;5033018;28;20203;-71
2022/01/07 00:17:00;;;;;;;1999.90;999.90;;;3.60;99.90;;;;;;5033126;28;20492;-72
2022/01/07 00:19:25;;;;;;;1999.90;999.90;;;3.60;99.90;;;;;;5033544;28;20187;-72
2022/01/07 00:21:51;;;;;;;1999.90;999.90;;;3.60;99.90;;;;;;5033237;28;20176;-71
2022/01/07 00:24:17;;;;;;;1999.90;999.90;;;3.60;99.90;;;;;;5032739;28;20191;-70
2022/01/07 00:26:42;;;;;;;1999.90;999.90;;;3.60;99.90;;;;;;5033293;28;20184;-72
2022/01/07 00:29:08;;;;;;;1999.90;999.90;;;3.70;99.90;;;;;;5032940;28;20297;-71
2022/01/07 00:31:33;;;;;;;1999.90;999.90;;;3.70;99.90;;;;;;5033038;28;20523;-72
2022/01/07 00:33:59;;;;;;;1999.90;999.90;;;3.70;99.90;;;;;;5032793;28;20176;-70
2022/01/07 00:36:25;;;;;;;1999.90;999.90;;;3.70;99.90;;;;;;5032615;28;20235;-71
2022/01/07 00:38:50;;;;;;;1999.90;999.90;;;3.80;99.90;;;;;;5033009;28;20255;-71
2022/01/07 00:41:16;;;;;;;1999.90;999.90;;;3.70;99.90;;;;;;5032717;28;20212;-71
2022/01/07 00:43:43;;;;;;;1999.90;999.90;;;3.70;99.90;;;;;;5032853;28;20172;-70
2022/01/07 00:46:08;;;;;;;1999.90;999.90;;;3.80;99.90;;;;;;5032707;28;20261;-71
2022/01/07 00:48:34;;;;;;;1999.90;999.90;;;3.80;99.90;;;;;;5032777;28;20231;-71
2022/01/07 00:50:59;;;;;;;1999.90;999.90;;;3.80;99.90;;;;;;5032626;28;20172;-70
2022/01/07 00:53:25;;;;;;;1999.90;999.90;;;3.80;99.90;;;;;;5032706;28;20263;-71
2022/01/07 00:55:51;;;;;;;1999.90;999.90;;;3.80;99.90;;;;;;5032425;28;20173;-72
2022/01/07 00:58:16;;;;;;;1999.90;999.90;;;3.80;99.90;;;;;;5032496;28;20251;-71
2022/01/07 01:00:42;;;;;;;1999.90;999.90;;;3.90;99.90;;;;;;5032438;28;20200;-70
2022/01/07 01:03:08;;;;;;;1999.90;999.90;;;3.90;99.90;;;;;;5032461;28;20630;-70
2022/01/07 01:05:33;;;;;;;1999.90;999.90;;;3.90;99.90;;;;;;5032111;28;20173;-71
2022/01/07 01:07:59;;;;;;;1999.90;999.90;;;3.90;99.90;;;;;;5032428;28;20430;-71
2022/01/07 01:10:25;;;;;;;1999.90;999.90;;;3.90;99.90;;;;;;5032579;28;20407;-71
2022/01/07 01:12:52;;;;;;;1999.90;999.90;;;4.00;99.90;;;;;;5032476;28;20164;-71
2022/01/07 01:15:23;;;;;;;1999.90;999.90;;;4.00;99.90;;;;;;5032220;28;20268;-70
2022/01/07 01:17:53;;;;;;;1999.90;999.90;;;4.00;99.90;;;;;;5032574;28;20207;-70
2022/01/07 01:20:20;;;;;;;1999.90;999.90;;;4.00;99.90;;;;;;5032364;28;20207;-71
2022/01/07 01:22:46;;;;;;;1999.90;999.90;;;4.00;99.90;;;;;;5032421;28;20308;-71
2022/01/07 01:25:12;;;;;;;1999.90;999.90;;;4.00;99.90;;;;;;5032149;28;20227;-71
2022/01/07 01:27:40;;;;;;;1999.90;999.90;;;4.10;99.90;;;;;;5032181;28;20227;-71
2022/01/07 01:30:08;;;;;;;1999.90;999.90;;;4.00;99.90;;;;;;5032216;28;20176;-71
2022/01/07 01:32:34;;;;;;;1999.90;999.90;;;4.10;99.90;;;;;;5032708;28;20702;-71
2022/01/07 01:35:00;;;;;;;1999.90;999.90;;;4.10;99.90;;;;;;5032380;28;20247;-71
2022/01/07 01:37:26;;;;;;;1999.90;999.90;;;4.10;99.90;;;;;;5032714;28;20293;-71
2022/01/07 01:39:51;;;;;;;1999.90;999.90;;;4.10;99.90;;;;;;5034472;28;20192;-71
2022/01/07 01:42:17;;;;;;;1999.90;999.90;;;4.10;99.90;;;;;;5036889;28;20196;-71
2022/01/07 01:44:43;;;;;;;1999.90;999.90;;;4.10;99.90;;;;;;5036657;28;20230;-71
2022/01/07 01:47:08;;;;;;;1999.90;999.90;;;4.10;99.90;;;;;;5036712;28;20184;-71
2022/01/07 01:49:34;;;;;;;1999.90;999.90;;;4.10;99.90;;;;;;5037077;28;20195;-71
2022/01/07 01:52:01;;;;;;;1999.90;999.90;;;4.10;99.90;;;;;;5036540;28;20245;-71
2022/01/07 01:54:27;;;;;;;1999.90;999.90;;;4.10;99.90;;;;;;5036567;28;20168;-71
2022/01/07 01:56:52;;;;;;;1999.90;999.90;;;4.10;99.90;;;;;;5036370;28;20257;-71
2022/01/07 01:59:27;;;;;;;1999.90;999.90;;;4.20;99.90;;;;;;5036351;28;20175;-71
2022/01/07 02:01:53;;;;;;;1999.90;999.90;;;4.20;99.90;;;;;;5036400;28;20576;-71
2022/01/07 02:04:19;;;;;;;1999.90;999.90;;;4.20;99.90;;;;;;5036541;28;20642;-71
2022/01/07 02:06:45;;;;;;;1999.90;999.90;;;4.30;99.90;;;;;;5036586;28;20199;-71
2022/01/07 02:09:11;;;;;;;1999.90;999.90;;;4.30;99.90;;;;;;5036546;28;20172;-71
2022/01/07 02:11:37;;;;;;;1999.90;999.90;;;4.30;99.90;;;;;;5036149;28;20673;-71
2022/01/07 02:14:02;;;;;;;1999.90;999.90;;;4.40;99.90;;;;;;5035755;28;20206;-71
2022/01/07 02:16:28;;;;;;;1999.90;999.90;;;4.40;99.90;;;;;;5036062;28;20410;-71
2022/01/07 02:18:54;;;;;;;1999.90;999.90;;;4.40;99.90;;;;;;5036175;28;20175;-71
2022/01/07 02:21:21;;;;;;;1999.90;999.90;;;4.50;99.90;;;;;;5036103;28;20462;-71
2022/01/07 02:23:47;;;;;;;1999.90;999.90;;;4.50;99.90;;;;;;5036028;28;20176;-71
2022/01/07 02:26:14;;;;;;;1999.90;999.90;;;4.50;99.90;;;;;;5035754;28;20539;-71
2022/01/07 02:28:40;;;;;;;1999.90;999.90;;;4.50;99.90;;;;;;5036432;28;20164;-71
2022/01/07 02:31:06;;;;;;;1999.90;999.90;;;4.50;99.90;;;;;;5035955;28;20251;-71
2022/01/07 02:33:32;;;;;;;1999.90;999.90;;;4.50;99.90;;;;;;5035635;28;20421;-71
2022/01/07 02:35:58;;;;;;;1999.90;999.90;;;4.50;99.90;;;;;;5035373;28;20171;-71
2022/01/07 02:38:23;;;;;;;1999.90;999.90;;;4.50;99.90;;;;;;5035265;28;20731;-71
2022/01/07 02:40:49;;;;;;;1999.90;999.90;;;4.50;99.90;;;;;;5035795;28;20669;-71
2022/01/07 02:43:15;;;;;;;1999.90;999.90;;;4.50;99.90;;;;;;5035668;28;20888;-71
2022/01/07 02:45:40;;;;;;;1999.90;999.90;;;4.50;99.90;;;;;;5035807;28;20206;-71
2022/01/07 02:48:06;;;;;;;1999.90;999.90;;;4.40;99.90;;;;;;5035497;28;20719;-71
2022/01/07 02:50:36;;;;;;;1999.90;999.90;;;4.40;99.90;;;;;;5035732;28;20179;-71
2022/01/07 02:53:04;;;;;;;1999.90;999.90;;;4.50;99.90;;;;;;5035973;28;20290;-71
2022/01/07 02:55:30;;;;;;;1999.90;999.90;;;4.40;99.90;;;;;;5035748;28;20187;-71
2022/01/07 02:57:56;;;;;;;1999.90;999.90;;;4.50;99.90;;;;;;5035738;28;20824;-71
2022/01/07 03:00:24;;;;;;;1999.90;999.90;;;4.40;99.90;;;;;;5035683;28;20196;-71
2022/01/07 03:02:51;;;;;;;1999.90;999.90;;;4.40;99.90;;;;;;5035435;28;20648;-71
2022/01/07 03:05:18;;;;;;;1999.90;999.90;;;4.40;99.90;;;;;;5035216;28;20403;-71
2022/01/07 03:07:47;;;;;;;1999.90;999.90;;;4.40;99.90;;;;;;5035162;28;20193;-71
2022/01/07 03:10:15;;;;;;;1999.90;999.90;;;4.40;99.90;;;;;;5035074;28;20179;-71
2022/01/07 03:12:43;;;;;;;1999.90;999.90;;;4.40;99.90;;;;;;5035057;28;20744;-71
2022/01/07 03:15:10;;;;;;;1999.90;999.90;;;4.40;99.90;;;;;;5035237;28;20180;-71
2022/01/07 03:17:39;;;;;;;1999.90;999.90;;;4.30;99.90;;;;;;5035215;28;20563;-71
2022/01/07 03:20:07;;;;;;;1999.90;999.90;;;4.30;99.90;;;;;;5034733;28;20245;-71
2022/01/07 03:22:33;;;;;;;1999.90;999.90;;;4.30;99.90;;;;;;5034702;28;20198;-71
2022/01/07 03:24:58;;;;;;;1999.90;999.90;;;4.40;99.90;;;;;;5034606;28;20160;-71
2022/01/07 03:27:24;;;;;;;1999.90;999.90;;;4.30;99.90;;;;;;5034666;28;20192;-71
2022/01/07 03:29:49;;;;;;;1999.90;999.90;;;4.30;99.90;;;;;;5034869;28;20181;-71
2022/01/07 03:32:15;;;;;;;1999.90;999.90;;;4.30;99.90;;;;;;5034460;28;20219;-71
2022/01/07 03:34:41;;;;;;;1999.90;999.90;;;4.30;99.90;;;;;;5034194;28;20176;-71
2022/01/07 03:37:06;;;;;;;1999.90;999.90;;;4.30;99.90;;;;;;5034335;28;20204;-71
2022/01/07 03:39:32;;;;;;;1999.90;999.90;;;4.30;99.90;;;;;;5034404;28;20176;-71
2022/01/07 03:41:57;;;;;;;1999.90;999.90;;;4.30;99.90;;;;;;5034452;28;20537;-71
2022/01/07 03:44:23;;;;;;;1999.90;999.90;;;4.30;99.90;;;;;;5034233;28;20169;-71
2022/01/07 03:46:49;;;;;;;1999.90;999.90;;;4.30;99.90;;;;;;5034381;28;20677;-71
2022/01/07 03:49:14;;;;;;;1999.90;999.90;;;4.30;99.90;;;;;;5034335;28;20696;-71
2022/01/07 03:51:41;;;;;;;1999.90;999.90;;;4.20;99.90;;;;;;5034723;28;20222;-71
2022/01/07 03:54:07;;;;;;;1999.90;999.90;;;4.20;99.90;;;;;;5034340;28;20172;-71
2022/01/07 03:56:34;;;;;;;1999.90;999.90;;;4.20;99.90;;;;;;5034072;28;20188;-71
2022/01/07 03:59:00;;;;;;;1999.90;999.90;;;4.30;99.90;;;;;;5034250;28;20203;-71
2022/01/07 04:01:26;;;;;;;1999.90;999.90;;;4.40;99.90;;;;;;5034098;28;20212;-71
2022/01/07 04:03:52;;;;;;;1999.90;999.90;;;4.30;99.90;;;;;;5033669;28;20196;-71
2022/01/07 04:06:20;;;;;;;1999.90;999.90;;;4.30;99.90;;;;;;5033698;28;20403;-71
2022/01/07 04:08:47;;;;;;;1999.90;999.90;;;4.40;99.90;;;;;;5033947;28;20268;-71
2022/01/07 04:11:13;;;;;;;1999.90;999.90;;;4.40;99.90;;;;;;5034120;28;20254;-71
2022/01/07 04:13:39;;;;;;;1999.90;999.90;;;4.40;99.90;;;;;;5033762;28;20653;-71
2022/01/07 04:16:05;;;;;;;1999.90;999.90;;;4.40;99.90;;;;;;5033693;28;20532;-71
2022/01/07 04:18:30;;;;;;;1999.90;999.90;;;4.40;99.90;;;;;;5033710;28;20697;-71
2022/01/07 04:20:56;;;;;;;1999.90;999.90;;;4.40;99.90;;;;;;5033561;28;20192;-71
2022/01/07 04:23:21;;;;;;;1999.90;999.90;;;4.40;99.90;;;;;;5033470;28;20160;-71
2022/01/07 04:25:47;;;;;;;1999.90;999.90;;;4.50;99.90;;;;;;5033186;28;20175;-71
2022/01/07 04:28:13;;;;;;;1999.90;999.90;;;4.50;99.90;;;;;;5033170;28;20204;-70
2022/01/07 04:30:43;;;;;;;1999.90;999.90;;;4.40;99.90;;;;;;5045424;22;20224;-75
2022/01/07 04:33:12;;;;;;;1999.90;999.90;;;4.50;99.90;;;;;;5013434;28;20207;-76
2022/01/07 04:35:38;;;;;;;1999.90;999.90;;;4.50;99.90;;;;;;5013079;28;20165;-74
2022/01/07 04:38:05;;;;;;;1999.90;999.90;;;4.60;99.90;;;;;;5013075;28;20171;-74
2022/01/07 04:40:32;;;;;;;1999.90;999.90;;;4.50;99.90;;;;;;5012848;28;20205;-74
2022/01/07 04:42:58;;;;;;;1999.90;999.90;;;4.60;99.90;;;;;;5012968;28;20193;-74
2022/01/07 04:45:24;;;;;;;1999.90;999.90;;;4.60;99.90;;;;;;5012618;28;20173;-74
2022/01/07 04:47:50;;;;;;;1999.90;999.90;;;4.60;99.90;;;;;;5012897;28;20169;-74
2022/01/07 04:50:17;;;;;;;1999.90;999.90;;;4.60;99.90;;;;;;5012801;28;20232;-75
2022/01/07 04:52:44;;;;;;;1999.90;999.90;;;4.60;99.90;;;;;;5012836;28;20165;-75
2022/01/07 04:55:25;;;;;;;1999.90;999.90;;;4.70;99.90;;;;;;5012469;28;20168;-74
2022/01/07 04:57:51;;;;;;;1999.90;999.90;;;4.70;99.90;;;;;;5012803;28;20173;-74
2022/01/07 05:00:19;;;;;;;1999.90;999.90;;;4.80;99.90;;;;;;5012512;28;20188;-74
2022/01/07 05:02:46;;;;;;;1999.90;999.90;;;4.80;99.90;;;;;;5011414;28;20440;-75
2022/01/07 05:05:12;;;;;;;1999.90;999.90;;;4.90;99.90;;;;;;5012308;28;20421;-75
2022/01/07 05:07:37;;;;;;;1999.90;999.90;;;4.90;99.90;;;;;;5012550;28;20185;-74
2022/01/07 05:10:12;;;;;;;1999.90;999.90;;;4.90;99.90;;;;;;5012516;28;20690;-75
2022/01/07 05:12:38;;;;;;;1999.90;999.90;;;4.90;99.90;;;;;;5012431;28;20164;-75
2022/01/07 05:15:05;;;;;;;1999.90;999.90;;;5.00;99.90;;;;;;5011348;28;20548;-74
2022/01/07 05:17:31;;;;;;;1999.90;999.90;;;5.00;99.90;;;;;;5012448;28;20814;-75
2022/01/07 05:19:57;;;;;;;1999.90;999.90;;;5.00;99.90;;;;;;5011057;28;20207;-74
2022/01/07 05:22:22;;;;;;;1999.90;999.90;;;5.00;99.90;;;;;;5012222;28;20203;-75
2022/01/07 05:24:48;;;;;;;1999.90;999.90;;;5.00;99.90;;;;;;5012098;28;20407;-75
2022/01/07 05:27:14;;;;;;;1999.90;999.90;;;5.00;99.90;;;;;;5012326;28;20196;-74
2022/01/07 05:29:39;;;;;;;1999.90;999.90;;;5.00;99.90;;;;;;5012316;28;20165;-75
2022/01/07 05:32:06;;;;;;;1999.90;999.90;;;5.00;99.90;;;;;;5012130;28;20197;-75
2022/01/07 05:34:31;;;;;;;1999.90;999.90;;;5.00;99.90;;;;;;5011965;28;20749;-75
2022/01/07 05:36:57;;;;;;;1999.90;999.90;;;5.00;99.90;;;;;;5012107;28;20406;-74
2022/01/07 05:39:24;;;;;;;1999.90;999.90;;;5.10;99.90;;;;;;5012199;28;20165;-75
2022/01/07 05:41:50;;;;;;;1999.90;999.90;;;5.00;99.90;;;;;;5011992;28;20228;-75
2022/01/07 05:44:15;;;;;;;1999.90;999.90;;;5.00;99.90;;;;;;5011880;28;20208;-75
2022/01/07 05:46:41;;;;;;;1999.90;999.90;;;4.90;99.90;;;;;;5012108;28;20952;-75
2022/01/07 05:49:07;;;;;;;1999.90;999.90;;;4.90;99.90;;;;;;5012043;28;20531;-74
2022/01/07 05:51:32;;;;;;;1999.90;999.90;;;4.90;99.90;;;;;;5011962;28;20560;-75
2022/01/07 05:53:59;;;;;;;1999.90;999.90;;;4.80;99.90;;;;;;5011927;28;20196;-75
2022/01/07 05:56:26;;;;;;;1999.90;999.90;;;4.80;99.90;;;;;;5011931;28;20254;-75
2022/01/07 05:58:52;;;;;;;1999.90;999.90;;;4.70;99.90;;;;;;5012031;28;20643;-74
2022/01/07 06:01:17;;;;;;;1999.90;999.90;;;4.70;99.90;;;;;;5011865;28;20307;-75
2022/01/07 06:03:43;;;;;;;1999.90;999.90;;;4.70;99.90;;;;;;5011911;28;20197;-75
2022/01/07 06:06:08;;;;;;;1999.90;999.90;;;4.70;99.90;;;;;;5011667;28;20196;-75
2022/01/07 06:08:34;;;;;;;1999.90;999.90;;;4.70;99.90;;;;;;5011918;28;20173;-75
2022/01/07 06:11:00;;;;;;;1999.90;999.90;;;4.80;99.90;;;;;;5011896;28;20204;-75
2022/01/07 06:13:25;;;;;;;1999.90;999.90;;;4.80;99.90;;;;;;5012105;28;20415;-75
2022/01/07 06:15:51;;;;;;;1999.90;999.90;;;4.70;99.90;;;;;;5011578;28;20177;-75
2022/01/07 06:18:17;;;;;;;1999.90;999.90;;;4.80;99.90;;;;;;5011826;28;20537;-75
2022/01/07 06:20:42;;;;;;;1999.90;999.90;;;4.80;99.90;;;;;;5011605;28;20223;-75
2022/01/07 06:23:08;;;;;;;1999.90;999.90;;;4.80;99.90;;;;;;5011808;28;20211;-75
2022/01/07 06:25:34;;;;;;;1999.90;999.90;;;4.90;99.90;;;;;;5012554;28;20177;-74
2022/01/07 06:27:59;;;;;;;1999.90;999.90;;;4.80;99.90;;;;;;5015484;28;20252;-75
2022/01/07 06:30:25;;;;;;;1999.90;999.90;;;4.80;99.90;;;;;;5015214;28;20284;-75
2022/01/07 06:32:51;;;;;;;1999.90;999.90;;;4.80;99.90;;;;;;5015496;28;20260;-75
2022/01/07 06:35:17;;;;;;;1999.90;999.90;;;4.80;99.90;;;;;;5014975;28;20196;-75
2022/01/07 06:37:43;;;;;;;1999.90;999.90;;;4.70;99.90;;;;;;5015283;28;20215;-74
2022/01/07 06:40:09;;;;;;;1999.90;999.90;;;4.70;99.90;;;;;;5015172;28;20185;-74
2022/01/07 06:42:34;;;;;;;1999.90;999.90;;;4.70;99.90;;;;;;5015154;28;20172;-75
2022/01/07 06:45:00;;;;;;;1999.90;999.90;;;4.80;99.90;;;;;;5014829;28;20765;-75
2022/01/07 06:47:26;;;;;;;1999.90;999.90;;;4.80;99.90;;;;;;5015158;28;20753;-76
2022/01/07 06:49:51;;;;;;;1999.90;999.90;;;4.80;99.90;;;;;;5014997;28;20175;-75
2022/01/07 06:52:17;;;;;;;1999.90;999.90;;;4.80;99.90;;;;;;5014965;28;20196;-75
2022/01/07 06:54:43;;;;;;;1999.90;999.90;;;4.80;99.90;;;;;;5014724;28;20239;-74
2022/01/07 06:57:08;;;;;;;1999.90;999.90;;;4.80;99.90;;;;;;5014912;28;20861;-75
2022/01/07 06:59:34;;;;;;;1999.90;999.90;;;4.80;99.90;;;;;;5014763;28;20172;-75
2022/01/07 07:02:00;;;;;;;1999.90;999.90;;;4.80;99.90;;;;;;5014730;28;20740;-75
2022/01/07 07:04:25;;;;;;;1999.90;999.90;;;4.80;99.90;;;;;;5014507;28;20165;-75
2022/01/07 07:06:51;;;;;;;1999.90;999.90;;;4.80;99.90;;;;;;5014609;28;20595;-75
2022/01/07 07:09:18;;;;;;;1999.90;999.90;;;4.90;99.90;;;;;;5014668;28;20168;-75
2022/01/07 07:11:44;;;;;;;1999.90;999.90;;;4.90;99.90;;;;;;5014606;28;20209;-75
2022/01/07 07:14:11;;;;;;;1999.90;999.90;;;4.90;99.90;;;;;;5014348;28;20412;-75
2022/01/07 07:16:37;;;;;;;1999.90;999.90;;;4.90;99.90;;;;;;5014482;28;20192;-75
2022/01/07 07:19:03;;;;;;;1999.90;999.90;;;4.90;99.90;;;;;;5014482;28;20412;-75
2022/01/07 07:21:28;;;;;;;1999.90;999.90;;;5.00;99.90;;;;;;5014346;28;20749;-75
2022/01/07 07:23:54;;;;;;;1999.90;999.90;;;5.00;99.90;;;;;;5014334;28;20491;-75
2022/01/07 07:26:20;;;;;;;1999.90;999.90;;;4.90;99.90;;;;;;5014356;28;20172;-75
2022/01/07 07:28:47;;;;;;;1999.90;999.90;;;4.90;99.90;;;;;;5014324;28;20423;-75
2022/01/07 07:31:16;;;;;;;1999.90;999.90;;;4.90;99.90;;;;;;5014089;28;20444;-75
2022/01/07 07:36:27;;;;;;;1999.90;999.90;;;4.90;99.90;;;;;;5013992;28;20587;-75
2022/01/07 07:39:01;;;;;;;1999.90;999.90;;;5.00;99.90;;;;;;5013510;28;20177;-75
2022/01/07 07:41:28;;;;;;;1999.90;999.90;;;5.00;99.90;;;;;;5014008;28;20311;-75
2022/01/07 07:43:56;;;;;;;1999.90;999.90;;;5.10;99.90;;;;;;5013966;28;20255;-75
2022/01/07 07:46:22;;;;;;;1999.90;999.90;;;5.00;99.90;;;;;;5013770;28;20253;-75
2022/01/07 07:48:48;;;;;;;1999.90;999.90;;;5.00;99.90;;;;;;5013963;28;20252;-75
2022/01/07 07:51:14;;;;;;;1999.90;999.90;;;5.00;99.90;;;;;;5013841;28;20328;-75
2022/01/07 07:53:40;;;;;;;1999.90;999.90;;;5.00;99.90;;;;;;5013784;28;20408;-75
2022/01/07 07:56:09;;;;;;;1999.90;999.90;;;5.00;99.90;;;;;;5013519;28;20582;-75
2022/01/07 07:58:34;;;;;;;1999.90;999.90;;;5.00;99.90;;;;;;5013701;28;20452;-75
2022/01/07 08:01:01;;;;;;;1999.90;999.90;;;5.00;99.90;;;;;;5013587;28;20682;-75
2022/01/07 08:03:27;;;;;;;1999.90;999.90;;;5.00;99.90;;;;;;5013675;28;20199;-75
2022/01/07 08:05:52;;;;;;;1999.90;999.90;;;5.10;99.90;;;;;;5013286;28;20435;-75
2022/01/07 08:08:18;;;;;;;1999.90;999.90;;;5.10;99.90;;;;;;5013516;28;20404;-75
2022/01/07 08:10:48;;;;;;;1999.90;999.90;;;5.10;99.90;;;;;;5012176;28;20701;-75
2022/01/07 08:15:58;;;;;;;1999.90;999.90;;;5.10;99.90;;;;;;5013461;28;20272;-75
2022/01/07 08:18:28;;;;;;;1999.90;999.90;;;5.20;99.90;;;;;;5013516;28;20168;-76
2022/01/07 08:21:00;;;;;;;1999.90;999.90;;;5.10;99.90;;;;;;5013211;28;20204;-75
2022/01/07 08:23:26;;;;;;;1999.90;999.90;;;5.20;99.90;;;;;;5013301;28;20165;-74
2022/01/07 08:25:51;;;;;;;1999.90;999.90;;;5.10;99.90;;;;;;5012893;28;20172;-74
2022/01/07 08:28:18;;;;;;;1999.90;999.90;;;5.20;99.90;;;;;;5013246;28;20651;-74
2022/01/07 08:36:10;;;;;;;1999.90;999.90;;;5.20;99.90;;;;;;5012773;28;20216;-74
2022/01/07 08:38:37;;;;;;;1999.90;999.90;;;5.10;99.90;;;;;;5013057;28;20412;-74
2022/01/07 08:41:03;;;;;;;1999.90;999.90;;;5.10;99.90;;;;;;5012886;28;20865;-74
2022/01/07 08:43:28;;;;;;;1999.90;999.90;;;5.20;99.90;;;;;;5013012;28;20197;-74
2022/01/07 08:45:54;;;;;;;1999.90;999.90;;;5.20;99.90;;;;;;5012672;28;20889;-74
2022/01/07 08:48:20;;;;;;;1999.90;999.90;;;5.20;99.90;;;;;;5012814;28;20415;-74
2022/01/07 08:50:45;;;;;;;1999.90;999.90;;;5.30;99.90;;;;;;5012627;28;20562;-74
2022/01/07 08:53:11;;;;;;;1999.90;999.90;;;5.30;99.90;;;;;;5012789;28;20191;-74
2022/01/07 08:55:37;;;;;;;1999.90;999.90;;;5.30;99.90;;;;;;5012560;28;20220;-74
2022/01/07 08:58:03;;;;;;;1999.90;999.90;;;5.40;99.90;;;;;;5012783;28;20200;-74
2022/01/07 09:00:30;;;;;;;1999.90;999.90;;;5.30;99.90;;;;;;5012522;28;20831;-74
2022/01/07 09:02:56;;;;;;;1999.90;999.90;;;5.30;99.90;;;;;;5012627;28;20402;-74
2022/01/07 09:05:21;;;;;;;1999.90;999.90;;;5.30;99.90;;;;;;5012256;28;20396;-74
2022/01/07 09:07:47;;;;;;;1999.90;999.90;;;5.40;99.90;;;;;;5012601;28;20172;-74
2022/01/07 09:10:13;;;;;;;1999.90;999.90;;;5.40;99.90;;;;;;5012542;28;20169;-74
2022/01/07 09:12:39;;;;;;;1999.90;999.90;;;5.40;99.90;;;;;;5012504;28;20165;-74
2022/01/07 09:15:05;;;;;;;1999.90;999.90;;;5.40;99.90;;;;;;5012152;28;20179;-74
2022/01/07 09:17:32;;;;;;;1999.90;999.90;;;5.40;99.90;;;;;;5012425;28;20168;-74
2022/01/07 09:19:59;;;;;;;1999.90;999.90;;;5.40;99.90;;;;;;5012243;28;20542;-74
2022/01/07 09:22:24;;;;;;;1999.90;999.90;;;5.40;99.90;;;;;;5012287;28;20251;-74
2022/01/07 09:24:51;;;;;;;1999.90;999.90;;;5.40;99.90;;;;;;5012040;28;20768;-74
2022/01/07 09:27:16;;;;;;;1999.90;999.90;;;5.30;99.90;;;;;;5012373;28;20403;-74
2022/01/07 09:29:42;;;;;;;1999.90;999.90;;;5.30;99.90;;;;;;5012245;28;20222;-74
2022/01/07 09:32:08;;;;;;;1999.90;999.90;;;5.40;99.90;;;;;;5012066;28;20201;-74
2022/01/07 09:34:33;;;;;;;1999.90;999.90;;;5.30;99.90;;;;;;5011932;28;20176;-74
2022/01/07 09:36:59;;;;;;;1999.90;999.90;;;5.40;99.90;;;;;;5012221;28;20701;-74
2022/01/07 09:39:25;;;;;;;1999.90;999.90;;;5.40;99.90;;;;;;5010942;28;20251;-74
2022/01/07 09:41:50;;;;;;;1999.90;999.90;;;5.40;99.90;;;;;;5011967;28;20208;-74
2022/01/07 09:44:16;;;;;;;1999.90;999.90;;;5.50;99.90;;;;;;5011856;28;20172;-74
2022/01/07 09:46:43;;;;;;;1999.90;999.90;;;5.50;99.90;;;;;;5012154;28;20432;-73
2022/01/07 09:49:09;;;;;;;1999.90;999.90;;;5.50;99.90;;;;;;5012016;28;20165;-73
2022/01/07 09:51:39;;;;;;;1999.90;999.90;;;5.60;99.90;;;;;;5012053;28;20428;-73
2022/01/07 09:54:07;;;;;;;1999.90;999.90;;;5.60;99.90;;;;;;5011699;28;20169;-74
2022/01/07 09:56:32;;;;;;;1999.90;999.90;;;5.70;99.90;;;;;;5012086;28;20173;-74
2022/01/07 09:58:58;;;;;;;1999.90;999.90;;;5.80;99.90;;;;;;5009853;28;20507;-72
2022/01/07 10:01:25;;;;;;;1999.90;999.90;;;5.90;99.90;;;;;;5013280;28;20270;-70
2022/01/07 10:03:51;;;;;;;1999.90;999.90;;;5.90;99.90;;;;;;5010168;28;20173;-72
2022/01/07 10:06:25;;;;;;;1999.90;999.90;;;6.00;99.90;;;;;;5013103;28;20415;-71
2022/01/07 10:09:00;;;;;;;1999.90;999.90;;;6.10;99.90;;;;;;5014016;28;20458;-73
2022/01/07 10:11:26;;;;;;;1999.90;999.90;;;6.20;99.90;;;;;;5013622;28;20443;-72
2022/01/07 10:14:22;;;;;;;1999.90;999.90;;;6.10;99.90;;;;;;5014481;28;20487;-73
2022/01/07 10:16:54;;;;;;;1999.90;999.90;;;6.10;99.90;;;;;;5014429;28;20424;-75
2022/01/07 10:19:33;;;;;;;1999.90;999.90;;;5.90;99.90;;;;;;5014469;28;20800;-73
2022/01/07 10:22:19;;;;;;;1999.90;999.90;;;5.90;99.90;;;;;;5013792;28;20463;-73
2022/01/07 10:24:58;;;;;;;1999.90;999.90;;;6.00;99.90;;;;;;5013004;28;20427;-73
2022/01/07 10:27:35;;;;;;;1999.90;999.90;;;6.00;99.90;;;;;;5014002;28;20481;-73
2022/01/07 10:30:13;;;;;;;1999.90;999.90;;;6.00;99.90;;;;;;5013962;28;20396;-73
2022/01/07 10:32:40;;;;;;;1999.90;999.90;;;6.10;99.90;;;;;;5013104;28;20909;-73
2022/01/07 10:35:18;;;;;;;1999.90;999.90;;;6.10;99.90;;;;;;5013192;28;20437;-73
2022/01/07 10:37:53;;;;;;;1999.90;999.90;;;6.20;99.90;;;;;;5013854;28;20176;-73
2022/01/07 10:40:32;;;;;;;1999.90;999.90;;;6.30;99.90;;;;;;5012958;28;20439;-73
2022/01/07 10:43:11;;;;;;;1999.90;999.90;;;6.30;99.90;;;;;;5013266;28;20404;-74
2022/01/07 10:45:39;;;;;;;1999.90;999.90;;;6.40;99.90;;;;;;5012070;28;20415;-74
2022/01/07 10:48:08;;;;;;;1999.90;999.90;;;6.50;99.90;;;;;;5013142;28;20443;-74
2022/01/07 10:50:39;;;;;;;1999.90;999.90;;;6.50;99.90;;;;;;5013686;28;20443;-74
2022/01/07 10:53:29;;;;;;;1999.90;999.90;;;6.50;99.90;;;;;;5013444;28;20437;-73
2022/01/07 10:55:57;;;;;;;1999.90;999.90;;;6.50;99.90;;;;;;5005326;28;20416;-73
2022/01/07 10:58:23;;;;;;;1999.90;999.90;;;6.60;99.90;;;;;;5013705;28;20453;-74
2022/01/07 11:00:48;;;;;;;1999.90;999.90;;;6.60;99.90;;;;;;5013415;28;20929;-73
2022/01/07 11:03:14;;;;;;;1999.90;999.90;;;6.60;99.90;;;;;;5012833;28;20169;-73
2022/01/07 11:05:41;;;;;;;1999.90;999.90;;;6.70;99.90;;;;;;5013090;28;20248;-74
2022/01/07 11:08:07;;;;;;;1999.90;999.90;;;6.80;99.90;;;;;;5013233;28;20223;-74
2022/01/07 11:10:33;;;;;;;1999.90;999.90;;;6.80;99.90;;;;;;5012872;28;20877;-73
2022/01/07 11:13:00;;;;;;;1999.90;999.90;;;6.80;99.90;;;;;;5011819;28;20280;-74
2022/01/07 11:15:26;;;;;;;1999.90;999.90;;;6.70;99.90;;;;;;5012959;28;20412;-74
2022/01/07 11:17:52;;;;;;;1999.90;999.90;;;6.80;99.90;;;;;;5012829;28;20400;-74
2022/01/07 11:20:24;;;;;;;1999.90;999.90;;;6.80;99.90;;;;;;5011713;28;20200;-74
2022/01/07 11:22:50;;;;;;;1999.90;999.90;;;6.90;99.90;;;;;;5013007;28;20381;-74
2022/01/07 11:25:16;;;;;;;1999.90;999.90;;;6.90;99.90;;;;;;5012255;28;20408;-74
2022/01/07 11:27:54;;;;;;;1999.90;999.90;;;7.00;99.90;;;;;;5012927;28;20411;-74
2022/01/07 11:30:24;;;;;;;1999.90;999.90;;;6.90;99.90;;;;;;5012881;28;20238;-74
2022/01/07 11:32:55;;;;;;;1999.90;999.90;;;6.90;99.90;;;;;;5012305;28;20404;-74
2022/01/07 11:35:21;;;;;;;1999.90;999.90;;;6.80;99.90;;;;;;5011233;28;20999;-73
2022/01/07 11:38:00;;;;;;;1999.90;999.90;;;6.70;99.90;;;;;;5012963;28;20438;-74
2022/01/07 11:40:31;;;;;;;1999.90;999.90;;;6.60;99.90;;;;;;5012645;28;21612;-74
2022/01/07 11:43:05;;;;;;;1999.90;999.90;;;6.60;99.90;;;;;;5012738;28;20404;-74
2022/01/07 11:45:31;;;;;;;1999.90;999.90;;;6.50;99.90;;;;;;5011998;28;20404;-75
2022/01/07 11:47:59;;;;;;;1999.90;999.90;;;6.50;99.90;;;;;;5012569;28;20399;-74
2022/01/07 11:50:24;;;;;;;1999.90;999.90;;;6.50;99.90;;;;;;5012658;28;20423;-74
2022/01/07 11:53:05;;;;;;;1999.90;999.90;;;6.50;99.90;;;;;;5011849;28;20509;-74
2022/01/07 11:55:38;;;;;;;1999.90;999.90;;;6.50;99.90;;;;;;5012296;28;20172;-74
2022/01/07 11:58:06;;;;;;;1999.90;999.90;;;6.60;99.90;;;;;;5012384;28;20511;-74
2022/01/07 12:00:52;;;;;;;1999.90;999.90;;;6.60;99.90;;;;;;5011868;28;20479;-74
2022/01/07 12:03:41;;;;;;;1999.90;999.90;;;6.60;99.90;;;;;;5012301;28;20890;-74
2022/01/07 12:06:28;;;;;;;1999.90;999.90;;;6.70;99.90;;;;;;5011968;28;20859;-74
2022/01/07 12:09:10;;;;;;;1999.90;999.90;;;6.70;99.90;;;;;;5011823;28;20411;-74
2022/01/07 12:11:40;;;;;;;1999.90;999.90;;;6.60;99.90;;;;;;5012308;28;20925;-74
2022/01/07 12:14:15;;;;;;;1999.90;999.90;;;6.60;99.90;;;;;;5011671;28;20805;-74
2022/01/07 12:16:46;;;;;;;1999.90;999.90;;;6.60;99.90;;;;;;5011618;28;20995;-74
2022/01/07 12:19:11;;;;;;;1999.90;999.90;;;6.50;99.90;;;;;;5012072;28;20487;-74